sensor_id;sensor_type;location;lat;lon;timestamp;pressure;altitude;pressure_sealevel;temperature;humidity
40205;BME280;26963;42.666;23.366;2022-11-20T00:01:39;94213.00;;;14.90;66.96
40205;BME280;26963;42.666;23.366;2022-11-20T00:04:05;94184.59;;;14.67;66.47
40205;BME280;26963;42.666;23.366;2022-11-20T00:06:31;94225.78;;;14.93;66.59
40205;BME280;26963;42.666;23.366;2022-11-20T00:08:59;94210.47;;;14.60;65.10
40205;BME280;26963;42.666;23.366;2022-11-20T00:11:26;94257.19;;;14.76;67.67
40205;BME280;26963;42.666;23.366;2022-11-20T00:13:54;94187.56;;;14.41;68.22
40205;BME280;26963;42.666;23.366;2022-11-20T00:16:22;94245.53;;;14.97;67.45
40205;BME280;26963;42.666;23.366;2022-11-20T00:18:48;94213.78;;;14.90;66.99
40205;BME280;26963;42.666;23.366;2022-11-20T00:21:16;94252.16;;;15.12;66.72
40205;BME280;26963;42.666;23.366;2022-11-20T00:23:42;94251.34;;;15.24;66.46
40205;BME280;26963;42.666;23.366;2022-11-20T00:26:10;94227.53;;;15.38;66.00
40205;BME280;26963;42.666;23.366;2022-11-20T00:28:36;94235.88;;;15.33;64.73
40205;BME280;26963;42.666;23.366;2022-11-20T00:31:12;94248.75;;;15.52;64.70
40205;BME280;26963;42.666;23.366;2022-11-20T00:33:38;94188.31;;;15.53;64.44
40205;BME280;26963;42.666;23.366;2022-11-20T00:36:09;94226.66;;;15.34;65.05
40205;BME280;26963;42.666;23.366;2022-11-20T00:38:35;94196.56;;;15.20;65.05
40205;BME280;26963;42.666;23.366;2022-11-20T00:41:04;94182.69;;;15.05;63.54
40205;BME280;26963;42.666;23.366;2022-11-20T00:43:30;94239.53;;;15.53;63.47
40205;BME280;26963;42.666;23.366;2022-11-20T00:46:03;94212.69;;;15.57;61.73
40205;BME280;26963;42.666;23.366;2022-11-20T00:48:29;94189.94;;;15.29;62.00
40205;BME280;26963;42.666;23.366;2022-11-20T00:50:55;94227.59;;;15.66;60.85
40205;BME280;26963;42.666;23.366;2022-11-20T00:53:21;94199.91;;;15.41;61.64
40205;BME280;26963;42.666;23.366;2022-11-20T00:55:58;94189.94;;;15.82;57.70
40205;BME280;26963;42.666;23.366;2022-11-20T00:58:25;94183.88;;;15.73;56.56
40205;BME280;26963;42.666;23.366;2022-11-20T01:00:53;94231.53;;;16.26;57.10
40205;BME280;26963;42.666;23.366;2022-11-20T01:03:24;94210.47;;;16.16;57.64
40205;BME280;26963;42.666;23.366;2022-11-20T01:05:50;94169.00;;;15.79;56.87
40205;BME280;26963;42.666;23.366;2022-11-20T01:08:15;94224.78;;;16.32;57.19
40205;BME280;26963;42.666;23.366;2022-11-20T01:10:40;94207.69;;;16.28;56.99
40205;BME280;26963;42.666;23.366;2022-11-20T01:13:06;94102.31;;;15.64;56.22
40205;BME280;26963;42.666;23.366;2022-11-20T01:15:50;94185.22;;;16.24;55.87
40205;BME280;26963;42.666;23.366;2022-11-20T01:18:16;94130.00;;;16.05;55.28
40205;BME280;26963;42.666;23.366;2022-11-20T01:20:41;94203.53;;;16.46;54.99
40205;BME280;26963;42.666;23.366;2022-11-20T01:23:07;94194.66;;;16.62;54.70
40205;BME280;26963;42.666;23.366;2022-11-20T01:25:34;94214.84;;;16.68;54.77
40205;BME280;26963;42.666;23.366;2022-11-20T01:27:59;94205.63;;;16.69;55.15
40205;BME280;26963;42.666;23.366;2022-11-20T01:30:25;94173.56;;;16.52;54.95
40205;BME280;26963;42.666;23.366;2022-11-20T01:32:50;94127.25;;;16.18;55.26
40205;BME280;26963;42.666;23.366;2022-11-20T01:35:16;94191.34;;;16.69;54.68
40205;BME280;26963;42.666;23.366;2022-11-20T01:37:41;94170.88;;;16.68;54.72
40205;BME280;26963;42.666;23.366;2022-11-20T01:40:07;94177.03;;;16.68;55.36
40205;BME280;26963;42.666;23.366;2022-11-20T01:42:33;94147.97;;;16.45;55.33
40205;BME280;26963;42.666;23.366;2022-11-20T01:49:04;94184.91;;;16.73;55.46
40205;BME280;26963;42.666;23.366;2022-11-20T01:51:38;94175.06;;;16.65;55.63
40205;BME280;26963;42.666;23.366;2022-11-20T01:54:12;94171.22;;;16.50;56.41
40205;BME280;26963;42.666;23.366;2022-11-20T01:56:41;94163.91;;;16.51;56.49
40205;BME280;26963;42.666;23.366;2022-11-20T01:59:10;94168.00;;;16.44;56.35
40205;BME280;26963;42.666;23.366;2022-11-20T02:01:36;94183.41;;;16.44;56.68
40205;BME280;26963;42.666;23.366;2022-11-20T02:04:02;94109.09;;;16.02;56.23
40205;BME280;26963;42.666;23.366;2022-11-20T02:06:32;94175.03;;;16.49;56.13
40205;BME280;26963;42.666;23.366;2022-11-20T02:09:00;94142.81;;;16.24;56.66
40205;BME280;26963;42.666;23.366;2022-11-20T02:11:25;94124.88;;;16.16;56.09
40205;BME280;26963;42.666;23.366;2022-11-20T02:13:52;94162.50;;;16.41;54.91
40205;BME280;26963;42.666;23.366;2022-11-20T02:16:25;94192.38;;;16.64;54.82
40205;BME280;26963;42.666;23.366;2022-11-20T02:18:52;94177.41;;;16.51;55.41
40205;BME280;26963;42.666;23.366;2022-11-20T02:21:38;94188.81;;;16.60;55.25
40205;BME280;26963;42.666;23.366;2022-11-20T02:27:06;94185.59;;;16.70;53.73
40205;BME280;26963;42.666;23.366;2022-11-20T02:29:37;94179.66;;;16.80;53.94
40205;BME280;26963;42.666;23.366;2022-11-20T02:32:04;94170.69;;;16.76;53.55
40205;BME280;26963;42.666;23.366;2022-11-20T02:34:30;94204.50;;;16.86;52.96
40205;BME280;26963;42.666;23.366;2022-11-20T02:36:56;94180.38;;;16.77;53.30
40205;BME280;26963;42.666;23.366;2022-11-20T02:39:24;94194.03;;;17.01;50.42
40205;BME280;26963;42.666;23.366;2022-11-20T02:41:53;94157.63;;;16.78;50.99
40205;BME280;26963;42.666;23.366;2022-11-20T02:44:19;94108.06;;;16.55;50.22
40205;BME280;26963;42.666;23.366;2022-11-20T02:46:45;94096.91;;;16.72;49.56
40205;BME280;26963;42.666;23.366;2022-11-20T02:49:11;94198.78;;;17.39;49.75
40205;BME280;26963;42.666;23.366;2022-11-20T02:51:36;94205.88;;;17.48;49.09
40205;BME280;26963;42.666;23.366;2022-11-20T02:54:02;94196.91;;;17.43;49.22
40205;BME280;26963;42.666;23.366;2022-11-20T02:56:28;94203.34;;;17.55;49.21
40205;BME280;26963;42.666;23.366;2022-11-20T02:58:54;94239.94;;;17.68;48.70
40205;BME280;26963;42.666;23.366;2022-11-20T03:01:20;94165.16;;;17.40;49.31
40205;BME280;26963;42.666;23.366;2022-11-20T03:03:45;94214.31;;;17.82;48.97
40205;BME280;26963;42.666;23.366;2022-11-20T03:06:14;94233.97;;;17.79;49.40
40205;BME280;26963;42.666;23.366;2022-11-20T03:08:39;94245.38;;;17.88;49.18
40205;BME280;26963;42.666;23.366;2022-11-20T03:11:06;94239.22;;;17.91;49.33
40205;BME280;26963;42.666;23.366;2022-11-20T03:13:32;94238.38;;;17.87;48.83
40205;BME280;26963;42.666;23.366;2022-11-20T03:16:08;94080.22;;;16.86;49.06
40205;BME280;26963;42.666;23.366;2022-11-20T03:18:33;94207.47;;;17.68;48.93
40205;BME280;26963;42.666;23.366;2022-11-20T03:20:59;94237.63;;;18.06;48.26
40205;BME280;26963;42.666;23.366;2022-11-20T03:23:25;94255.09;;;18.08;48.41
40205;BME280;26963;42.666;23.366;2022-11-20T03:25:50;94255.38;;;18.03;48.74
40205;BME280;26963;42.666;23.366;2022-11-20T03:28:16;94245.69;;;18.02;48.58
40205;BME280;26963;42.666;23.366;2022-11-20T03:30:41;94251.81;;;17.99;48.46
40205;BME280;26963;42.666;23.366;2022-11-20T03:33:07;94253.56;;;17.91;48.90
40205;BME280;26963;42.666;23.366;2022-11-20T03:35:32;94201.66;;;17.66;49.04
40205;BME280;26963;42.666;23.366;2022-11-20T03:37:58;94255.47;;;17.91;48.82
40205;BME280;26963;42.666;23.366;2022-11-20T03:40:23;94259.13;;;17.99;48.86
40205;BME280;26963;42.666;23.366;2022-11-20T03:42:49;94242.38;;;17.93;48.88
40205;BME280;26963;42.666;23.366;2022-11-20T03:45:17;94152.50;;;17.25;48.53
40205;BME280;26963;42.666;23.366;2022-11-20T03:47:43;94259.56;;;18.01;48.65
40205;BME280;26963;42.666;23.366;2022-11-20T03:50:10;94265.91;;;18.08;48.49
40205;BME280;26963;42.666;23.366;2022-11-20T03:52:39;94265.91;;;18.08;48.38
40205;BME280;26963;42.666;23.366;2022-11-20T03:55:06;94232.03;;;17.95;48.43
40205;BME280;26963;42.666;23.366;2022-11-20T03:57:32;94240.03;;;17.91;48.49
40205;BME280;26963;42.666;23.366;2022-11-20T03:59:57;94234.72;;;17.95;48.42
40205;BME280;26963;42.666;23.366;2022-11-20T04:02:23;94179.16;;;17.62;48.11
40205;BME280;26963;42.666;23.366;2022-11-20T04:04:48;94256.94;;;18.04;48.11
40205;BME280;26963;42.666;23.366;2022-11-20T04:07:14;94248.16;;;18.11;48.02
40205;BME280;26963;42.666;23.366;2022-11-20T04:09:39;94260.41;;;18.05;48.11
40205;BME280;26963;42.666;23.366;2022-11-20T04:12:05;94259.72;;;18.08;48.18
40205;BME280;26963;42.666;23.366;2022-11-20T04:14:30;94203.28;;;17.71;48.15
40205;BME280;26963;42.666;23.366;2022-11-20T04:16:56;94263.72;;;18.14;47.85
40205;BME280;26963;42.666;23.366;2022-11-20T04:19:21;94265.13;;;18.08;47.46
40205;BME280;26963;42.666;23.366;2022-11-20T04:21:47;94262.00;;;18.06;47.55
40205;BME280;26963;42.666;23.366;2022-11-20T04:24:12;94280.66;;;18.11;47.81
40205;BME280;26963;42.666;23.366;2022-11-20T04:26:39;94248.91;;;18.08;47.50
40205;BME280;26963;42.666;23.366;2022-11-20T04:29:05;94268.75;;;18.16;47.75
40205;BME280;26963;42.666;23.366;2022-11-20T04:31:32;94272.59;;;18.15;47.66
40205;BME280;26963;42.666;23.366;2022-11-20T04:34:00;94251.81;;;17.99;48.07
40205;BME280;26963;42.666;23.366;2022-11-20T04:36:26;94270.91;;;18.06;47.97
40205;BME280;26963;42.666;23.366;2022-11-20T04:39:01;94286.34;;;18.06;48.43
40205;BME280;26963;42.666;23.366;2022-11-20T04:41:29;94277.47;;;18.05;48.27
40205;BME280;26963;42.666;23.366;2022-11-20T04:43:58;94221.00;;;17.68;48.43
40205;BME280;26963;42.666;23.366;2022-11-20T04:46:30;94273.28;;;17.92;48.80
40205;BME280;26963;42.666;23.366;2022-11-20T04:48:56;94267.31;;;18.02;48.84
40205;BME280;26963;42.666;23.366;2022-11-20T04:51:22;94265.50;;;18.06;48.92
40205;BME280;26963;42.666;23.366;2022-11-20T04:53:47;94198.78;;;17.59;48.87
40205;BME280;26963;42.666;23.366;2022-11-20T04:56:13;94238.81;;;17.89;48.72
40205;BME280;26963;42.666;23.366;2022-11-20T04:58:39;94254.81;;;17.94;48.86
40205;BME280;26963;42.666;23.366;2022-11-20T05:01:16;94234.00;;;17.98;48.93
40205;BME280;26963;42.666;23.366;2022-11-20T05:03:43;94262.78;;;18.06;49.29
40205;BME280;26963;42.666;23.366;2022-11-20T05:06:11;94248.66;;;17.97;49.29
40205;BME280;26963;42.666;23.366;2022-11-20T05:08:37;94212.63;;;17.73;49.22
40205;BME280;26963;42.666;23.366;2022-11-20T05:11:10;94254.09;;;17.97;49.27
40205;BME280;26963;42.666;23.366;2022-11-20T05:13:36;94251.84;;;17.83;49.62
40205;BME280;26963;42.666;23.366;2022-11-20T05:16:07;94212.88;;;17.68;49.98
40205;BME280;26963;42.666;23.366;2022-11-20T05:18:34;94147.69;;;17.34;49.96
40205;BME280;26963;42.666;23.366;2022-11-20T05:20:59;94200.19;;;17.53;50.44
40205;BME280;26963;42.666;23.366;2022-11-20T05:23:26;94251.66;;;17.56;51.76
40205;BME280;26963;42.666;23.366;2022-11-20T05:25:53;94163.94;;;17.18;52.10
40205;BME280;26963;42.666;23.366;2022-11-20T05:28:19;94158.97;;;17.20;52.81
40205;BME280;26963;42.666;23.366;2022-11-20T05:30:44;94225.47;;;17.60;53.56
40205;BME280;26963;42.666;23.366;2022-11-20T05:33:10;94216.53;;;17.40;54.94
40205;BME280;26963;42.666;23.366;2022-11-20T05:35:35;94211.69;;;17.30;55.80
40205;BME280;26963;42.666;23.366;2022-11-20T05:38:01;94208.22;;;17.14;56.42
40205;BME280;26963;42.666;23.366;2022-11-20T05:40:26;94231.78;;;17.29;56.45
40205;BME280;26963;42.666;23.366;2022-11-20T05:42:52;94219.22;;;17.21;56.49
40205;BME280;26963;42.666;23.366;2022-11-20T05:45:18;94218.84;;;17.22;56.62
40205;BME280;26963;42.666;23.366;2022-11-20T05:47:44;94161.53;;;16.81;56.76
40205;BME280;26963;42.666;23.366;2022-11-20T05:50:09;94212.22;;;17.20;56.72
40205;BME280;26963;42.666;23.366;2022-11-20T05:52:34;94220.94;;;17.29;56.47
40205;BME280;26963;42.666;23.366;2022-11-20T05:55:00;94172.78;;;16.99;56.49
40205;BME280;26963;42.666;23.366;2022-11-20T05:57:26;94202.28;;;17.24;56.66
40205;BME280;26963;42.666;23.366;2022-11-20T05:59:51;94174.78;;;17.02;56.53
40205;BME280;26963;42.666;23.366;2022-11-20T06:02:17;94162.03;;;16.87;56.40
40205;BME280;26963;42.666;23.366;2022-11-20T06:04:42;94223.66;;;17.29;56.37
40205;BME280;26963;42.666;23.366;2022-11-20T06:07:08;94189.75;;;17.16;56.21
40205;BME280;26963;42.666;23.366;2022-11-20T06:09:33;94236.00;;;17.46;56.12
40205;BME280;26963;42.666;23.366;2022-11-20T06:11:59;94181.06;;;17.06;55.86
40205;BME280;26963;42.666;23.366;2022-11-20T06:14:24;94171.66;;;17.00;56.14
40205;BME280;26963;42.666;23.366;2022-11-20T06:16:50;94263.41;;;17.44;55.98
40205;BME280;26963;42.666;23.366;2022-11-20T06:19:15;94253.00;;;17.47;55.90
40205;BME280;26963;42.666;23.366;2022-11-20T06:21:41;94237.84;;;17.42;55.69
40205;BME280;26963;42.666;23.366;2022-11-20T06:24:09;94190.31;;;17.05;55.57
40205;BME280;26963;42.666;23.366;2022-11-20T06:26:34;94157.97;;;16.77;55.61
40205;BME280;26963;42.666;23.366;2022-11-20T06:29:00;94199.72;;;17.11;55.58
40205;BME280;26963;42.666;23.366;2022-11-20T06:31:25;94255.50;;;17.55;55.56
40205;BME280;26963;42.666;23.366;2022-11-20T06:33:52;94162.41;;;17.01;55.29
40205;BME280;26963;42.666;23.366;2022-11-20T06:36:19;94239.34;;;17.59;54.98
40205;BME280;26963;42.666;23.366;2022-11-20T06:38:45;94244.94;;;17.66;54.39
40205;BME280;26963;42.666;23.366;2022-11-20T06:41:16;94182.00;;;17.14;54.33
40205;BME280;26963;42.666;23.366;2022-11-20T06:43:42;94251.84;;;17.48;54.46
40205;BME280;26963;42.666;23.366;2022-11-20T06:46:10;94248.50;;;17.35;54.85
40205;BME280;26963;42.666;23.366;2022-11-20T06:48:36;94248.84;;;17.33;54.99
40205;BME280;26963;42.666;23.366;2022-11-20T06:51:06;94244.56;;;17.32;54.71
40205;BME280;26963;42.666;23.366;2022-11-20T06:53:33;94267.34;;;17.31;55.26
40205;BME280;26963;42.666;23.366;2022-11-20T06:55:59;94273.69;;;17.39;55.14
40205;BME280;26963;42.666;23.366;2022-11-20T06:58:27;94244.75;;;17.23;54.80
40205;BME280;26963;42.666;23.366;2022-11-20T07:00:53;94270.00;;;17.47;54.39
40205;BME280;26963;42.666;23.366;2022-11-20T07:03:19;94278.78;;;17.60;53.86
40205;BME280;26963;42.666;23.366;2022-11-20T07:05:45;94222.09;;;17.12;53.58
40205;BME280;26963;42.666;23.366;2022-11-20T07:08:11;94246.25;;;17.21;54.15
40205;BME280;26963;42.666;23.366;2022-11-20T07:10:37;94281.34;;;17.53;54.08
40205;BME280;26963;42.666;23.366;2022-11-20T07:13:03;94287.97;;;17.55;53.70
40205;BME280;26963;42.666;23.366;2022-11-20T07:15:29;94247.53;;;17.43;53.78
40205;BME280;26963;42.666;23.366;2022-11-20T07:17:55;94260.81;;;17.52;53.72
40205;BME280;26963;42.666;23.366;2022-11-20T07:20:23;94263.19;;;17.53;53.88
40205;BME280;26963;42.666;23.366;2022-11-20T07:22:53;94280.13;;;17.50;53.98
40205;BME280;26963;42.666;23.366;2022-11-20T07:25:20;94268.09;;;17.48;53.47
40205;BME280;26963;42.666;23.366;2022-11-20T07:27:45;94275.50;;;17.51;53.20
40205;BME280;26963;42.666;23.366;2022-11-20T07:30:11;94294.91;;;17.72;52.37
40205;BME280;26963;42.666;23.366;2022-11-20T07:32:37;94282.78;;;17.66;52.09
40205;BME280;26963;42.666;23.366;2022-11-20T07:35:03;94220.00;;;17.21;52.18
40205;BME280;26963;42.666;23.366;2022-11-20T07:37:28;94293.44;;;17.59;52.18
40205;BME280;26963;42.666;23.366;2022-11-20T07:39:54;94270.97;;;17.55;52.34
40205;BME280;26963;42.666;23.366;2022-11-20T07:42:19;94285.66;;;17.73;51.79
40205;BME280;26963;42.666;23.366;2022-11-20T07:44:45;94280.78;;;17.63;51.91
40205;BME280;26963;42.666;23.366;2022-11-20T07:47:10;94293.69;;;17.70;51.66
40205;BME280;26963;42.666;23.366;2022-11-20T07:49:35;94212.94;;;17.17;51.25
40205;BME280;26963;42.666;23.366;2022-11-20T07:52:01;94283.56;;;17.67;51.23
40205;BME280;26963;42.666;23.366;2022-11-20T07:54:26;94213.63;;;17.14;51.92
40205;BME280;26963;42.666;23.366;2022-11-20T07:56:53;94278.53;;;17.49;52.09
40205;BME280;26963;42.666;23.366;2022-11-20T07:59:19;94286.75;;;17.53;51.96
40205;BME280;26963;42.666;23.366;2022-11-20T08:01:44;94283.91;;;17.46;52.37
40205;BME280;26963;42.666;23.366;2022-11-20T08:04:10;94276.03;;;17.40;52.54
40205;BME280;26963;42.666;23.366;2022-11-20T08:06:36;94289.13;;;17.38;52.94
40205;BME280;26963;42.666;23.366;2022-11-20T08:09:02;94221.88;;;17.01;52.69
40205;BME280;26963;42.666;23.366;2022-11-20T08:11:28;94278.53;;;17.49;52.49
40205;BME280;26963;42.666;23.366;2022-11-20T08:14:12;94285.78;;;17.61;52.54
40205;BME280;26963;42.666;23.366;2022-11-20T08:19:04;94276.84;;;17.76;51.64
40205;BME280;26963;42.666;23.366;2022-11-20T08:21:30;94213.41;;;17.38;51.80
40205;BME280;26963;42.666;23.366;2022-11-20T08:23:57;94283.50;;;17.63;52.23
40205;BME280;26963;42.666;23.366;2022-11-20T08:26:23;94278.59;;;17.69;52.06
40205;BME280;26963;42.666;23.366;2022-11-20T08:28:49;94281.31;;;17.69;52.15
40205;BME280;26963;42.666;23.366;2022-11-20T08:31:15;94286.16;;;17.79;51.87
40205;BME280;26963;42.666;23.366;2022-11-20T08:33:40;94285.38;;;17.79;51.80
40205;BME280;26963;42.666;23.366;2022-11-20T08:36:06;94289.44;;;17.88;51.67
40205;BME280;26963;42.666;23.366;2022-11-20T08:38:32;94248.13;;;17.72;50.74
40205;BME280;26963;42.666;23.366;2022-11-20T08:40:59;94289.56;;;18.12;51.04
40205;BME280;26963;42.666;23.366;2022-11-20T08:43:43;94302.47;;;18.18;50.70
40205;BME280;26963;42.666;23.366;2022-11-20T08:46:09;94300.25;;;18.24;49.75
40205;BME280;26963;42.666;23.366;2022-11-20T08:48:34;94236.41;;;17.84;49.70
40205;BME280;26963;42.666;23.366;2022-11-20T08:51:00;94295.41;;;18.14;49.91
40205;BME280;26963;42.666;23.366;2022-11-20T08:53:26;94349.97;;;18.35;50.11
40205;BME280;26963;42.666;23.366;2022-11-20T08:55:52;94277.84;;;17.88;50.62
40205;BME280;26963;42.666;23.366;2022-11-20T08:58:17;94325.06;;;18.26;50.87
40205;BME280;26963;42.666;23.366;2022-11-20T09:00:43;94269.44;;;17.93;50.78
40205;BME280;26963;42.666;23.366;2022-11-20T09:03:08;94309.38;;;18.16;50.87
40205;BME280;26963;42.666;23.366;2022-11-20T09:05:34;94332.19;;;18.34;51.05
40205;BME280;26963;42.666;23.366;2022-11-20T09:07:59;94331.38;;;18.34;51.10
40205;BME280;26963;42.666;23.366;2022-11-20T09:10:26;94332.25;;;18.38;52.11
40205;BME280;26963;42.666;23.366;2022-11-20T09:12:52;94336.09;;;18.37;51.87
40205;BME280;26963;42.666;23.366;2022-11-20T09:15:18;94321.97;;;18.28;51.69
40205;BME280;26963;42.666;23.366;2022-11-20T09:18:01;94342.75;;;18.39;52.73
40205;BME280;26963;42.666;23.366;2022-11-20T09:20:28;94345.09;;;18.41;52.76
40205;BME280;26963;42.666;23.366;2022-11-20T09:22:54;94279.50;;;17.92;53.62
40205;BME280;26963;42.666;23.366;2022-11-20T09:25:20;94323.69;;;18.16;54.76
40205;BME280;26963;42.666;23.366;2022-11-20T09:27:46;94347.00;;;18.21;55.67
40205;BME280;26963;42.666;23.366;2022-11-20T09:30:12;94241.22;;;17.55;56.95
40205;BME280;26963;42.666;23.366;2022-11-20T09:32:39;94350.25;;;18.11;54.74
40205;BME280;26963;42.666;23.366;2022-11-20T09:35:04;94327.31;;;18.04;55.44
40205;BME280;26963;42.666;23.366;2022-11-20T09:37:30;94314.56;;;18.05;57.21
40205;BME280;26963;42.666;23.366;2022-11-20T09:39:56;94314.50;;;18.01;58.23
40205;BME280;26963;42.666;23.366;2022-11-20T09:48:20;94296.50;;;17.93;56.08
40205;BME280;26963;42.666;23.366;2022-11-20T09:53:24;94299.50;;;17.88;57.41
40205;BME280;26963;42.666;23.366;2022-11-20T09:55:54;94248.53;;;17.54;57.68
40205;BME280;26963;42.666;23.366;2022-11-20T09:58:42;94277.69;;;17.81;59.27
40205;BME280;26963;42.666;23.366;2022-11-20T10:01:21;94293.19;;;17.64;60.92
40205;BME280;26963;42.666;23.366;2022-11-20T10:06:32;94283.34;;;17.56;61.28
40205;BME280;26963;42.666;23.366;2022-11-20T10:09:52;94272.47;;;17.36;59.37
40205;BME280;26963;42.666;23.366;2022-11-20T10:21:26;94271.38;;;17.05;60.13
40205;BME280;26963;42.666;23.366;2022-11-20T10:31:34;94267.69;;;16.82;62.22
40205;BME280;26963;42.666;23.366;2022-11-20T10:34:21;94274.03;;;16.89;62.53
40205;BME280;26963;42.666;23.366;2022-11-20T10:36:52;94203.03;;;16.57;63.20
40205;BME280;26963;42.666;23.366;2022-11-20T10:39:39;94265.09;;;17.01;62.43
40205;BME280;26963;42.666;23.366;2022-11-20T10:42:16;94223.94;;;16.60;62.21
40205;BME280;26963;42.666;23.366;2022-11-20T10:44:52;94235.69;;;16.68;62.60
40205;BME280;26963;42.666;23.366;2022-11-20T10:47:27;94272.59;;;16.92;63.27
40205;BME280;26963;42.666;23.366;2022-11-20T10:49:55;94282.88;;;17.02;62.62
40205;BME280;26963;42.666;23.366;2022-11-20T10:55:33;94267.09;;;17.20;61.88
40205;BME280;26963;42.666;23.366;2022-11-20T10:58:14;94293.50;;;17.27;61.53
40205;BME280;26963;42.666;23.366;2022-11-20T11:00:42;94258.13;;;17.00;61.45
40205;BME280;26963;42.666;23.366;2022-11-20T11:03:33;94292.97;;;17.37;61.53
40205;BME280;26963;42.666;23.366;2022-11-20T11:06:03;94254.19;;;17.14;61.29
40205;BME280;26963;42.666;23.366;2022-11-20T11:08:36;94304.06;;;17.32;61.55
40205;BME280;26963;42.666;23.366;2022-11-20T11:13:35;94293.25;;;17.16;63.12
40205;BME280;26963;42.666;23.366;2022-11-20T11:16:02;94339.13;;;17.44;63.69
40205;BME280;26963;42.666;23.366;2022-11-20T11:18:33;94343.47;;;17.33;65.02
40205;BME280;26963;42.666;23.366;2022-11-20T11:21:02;94350.00;;;17.32;62.69
40205;BME280;26963;42.666;23.366;2022-11-20T11:23:39;94354.19;;;17.14;60.32
40205;BME280;26963;42.666;23.366;2022-11-20T11:26:17;94268.53;;;16.54;60.00
40205;BME280;26963;42.666;23.366;2022-11-20T11:28:53;94320.53;;;16.67;59.01
40205;BME280;26963;42.666;23.366;2022-11-20T11:31:27;94334.91;;;16.55;57.67
40205;BME280;26963;42.666;23.366;2022-11-20T11:34:07;94331.16;;;16.31;57.58
40205;BME280;26963;42.666;23.366;2022-11-20T11:36:34;94339.50;;;16.26;58.95
40205;BME280;26963;42.666;23.366;2022-11-20T11:39:02;94349.91;;;16.11;58.33
40205;BME280;26963;42.666;23.366;2022-11-20T11:41:32;94311.50;;;15.77;60.49
40205;BME280;26963;42.666;23.366;2022-11-20T11:44:43;94336.13;;;15.88;60.32
40205;BME280;26963;42.666;23.366;2022-11-20T11:47:33;94308.59;;;15.58;62.04
40205;BME280;26963;42.666;23.366;2022-11-20T11:55:29;94344.13;;;15.23;61.93
40205;BME280;26963;42.666;23.366;2022-11-20T12:00:39;94323.22;;;14.95;61.84
40205;BME280;26963;42.666;23.366;2022-11-20T12:03:17;94254.13;;;14.53;64.88
40205;BME280;26963;42.666;23.366;2022-11-20T12:05:52;94240.56;;;14.62;61.58
40205;BME280;26963;42.666;23.366;2022-11-20T12:08:27;94285.50;;;14.95;62.83
40205;BME280;26963;42.666;23.366;2022-11-20T12:11:03;94321.56;;;15.15;62.91
40205;BME280;26963;42.666;23.366;2022-11-20T12:13:39;94232.19;;;14.76;63.11
40205;BME280;26963;42.666;23.366;2022-11-20T12:16:11;94327.25;;;15.26;60.34
40205;BME280;26963;42.666;23.366;2022-11-20T12:18:39;94299.53;;;15.13;60.55
40205;BME280;26963;42.666;23.366;2022-11-20T12:48:53;94225.31;;;14.66;62.96
40205;BME280;26963;42.666;23.366;2022-11-20T12:54:18;94220.56;;;14.63;64.16
40205;BME280;26963;42.666;23.366;2022-11-20T13:00:07;94233.19;;;14.96;62.95
40205;BME280;26963;42.666;23.366;2022-11-20T13:05:38;94209.59;;;14.56;66.54
40205;BME280;26963;42.666;23.366;2022-11-20T13:08:20;94213.63;;;14.16;66.51
40205;BME280;26963;42.666;23.366;2022-11-20T13:18:41;94224.75;;;14.14;68.96
40205;BME280;26963;42.666;23.366;2022-11-20T13:21:46;94269.63;;;14.35;70.25
40205;BME280;26963;42.666;23.366;2022-11-20T13:27:03;94203.28;;;14.39;65.12
40205;BME280;26963;42.666;23.366;2022-11-20T13:29:29;94179.72;;;14.36;66.01
40205;BME280;26963;42.666;23.366;2022-11-20T13:32:16;94283.34;;;14.42;67.02
40205;BME280;26963;42.666;23.366;2022-11-20T13:35:11;94325.94;;;14.40;67.93
40205;BME280;26963;42.666;23.366;2022-11-20T13:37:37;94275.28;;;14.42;67.48
40205;BME280;26963;42.666;23.366;2022-11-20T13:40:13;94225.03;;;14.34;66.96
40205;BME280;26963;42.666;23.366;2022-11-20T13:45:24;94302.25;;;14.33;67.87
40205;BME280;26963;42.666;23.366;2022-11-20T13:47:52;94292.09;;;14.39;68.34
40205;BME280;26963;42.666;23.366;2022-11-20T13:50:18;94243.22;;;14.49;67.63
40205;BME280;26963;42.666;23.366;2022-11-20T13:53:08;94297.31;;;14.57;68.16
40205;BME280;26963;42.666;23.366;2022-11-20T13:55:54;94288.88;;;14.58;68.89
40205;BME280;26963;42.666;23.366;2022-11-20T13:58:44;94267.13;;;14.63;67.25
40205;BME280;26963;42.666;23.366;2022-11-20T14:01:21;94298.78;;;14.66;68.45
40205;BME280;26963;42.666;23.366;2022-11-20T14:03:51;94309.72;;;14.82;69.14
40205;BME280;26963;42.666;23.366;2022-11-20T14:06:31;94288.41;;;14.90;68.02
40205;BME280;26963;42.666;23.366;2022-11-20T14:08:58;94293.13;;;14.93;67.54
40205;BME280;26963;42.666;23.366;2022-11-20T14:11:26;94299.63;;;15.04;68.06
40205;BME280;26963;42.666;23.366;2022-11-20T14:14:04;94270.00;;;15.04;67.00
40205;BME280;26963;42.666;23.366;2022-11-20T14:16:35;94201.09;;;14.78;65.50
40205;BME280;26963;42.666;23.366;2022-11-20T14:22:07;94247.69;;;15.04;67.88
40205;BME280;26963;42.666;23.366;2022-11-20T14:24:33;94164.06;;;14.50;68.18
40205;BME280;26963;42.666;23.366;2022-11-20T14:26:59;94271.13;;;15.28;69.20
40205;BME280;26963;42.666;23.366;2022-11-20T14:29:32;94261.94;;;15.29;69.27
40205;BME280;26963;42.666;23.366;2022-11-20T14:32:00;94269.78;;;15.34;67.68
40205;BME280;26963;42.666;23.366;2022-11-20T14:34:33;94258.09;;;15.30;68.57
40205;BME280;26963;42.666;23.366;2022-11-20T14:37:04;94277.41;;;15.32;68.38
40205;BME280;26963;42.666;23.366;2022-11-20T14:39:33;94288.53;;;15.43;68.08
40205;BME280;26963;42.666;23.366;2022-11-20T14:41:59;94279.19;;;15.40;66.15
40205;BME280;26963;42.666;23.366;2022-11-20T14:44:32;94222.63;;;15.03;66.77